Time;durP1;ratioP1;P1;durP2;ratioP2;P2;SDS_P1;SDS_P2;PMS_P1;PMS_P2;Temp;Humidity;BMP_temperature;BMP_pressure;BME280_temperature;BME280_humidity;BME280_pressure;Samples;Min_cycle;Max_cycle;Signal;HPM_P1;HPM_P2
2020/12/30 00:00:21;;;;;;;2.43;1.97;;;;;18.80;98538.00;;;;2062344;28;20246;-52
2020/12/30 00:01:22;;;;;;;2.33;2.13;;;;;18.80;98541.00;;;;2062263;28;20700;-53
2020/12/30 00:02:22;;;;;;;2.50;2.30;;;;;18.80;98535.00;;;;2062587;28;20585;-52
2020/12/30 00:03:23;;;;;;;2.37;1.87;;;;;18.80;98538.00;;;;2062926;28;20722;-53
2020/12/30 00:04:23;;;;;;;2.23;2.03;;;;;18.80;98538.00;;;;2063004;28;20728;-51
2020/12/30 00:05:23;;;;;;;2.20;2.10;;;;;18.80;98544.00;;;;2061860;28;20691;-51
2020/12/30 00:06:24;;;;;;;2.53;2.33;;;;;18.80;98536.00;;;;2062767;28;20231;-52
2020/12/30 00:07:24;;;;;;;2.23;1.90;;;;;18.80;98538.00;;;;2062696;28;20217;-51
2020/12/30 00:08:24;;;;;;;2.40;2.10;;;;;18.80;98540.00;;;;2062666;28;20241;-53
2020/12/30 00:09:25;;;;;;;2.00;1.90;;;;;18.80;98529.00;;;;2062027;28;20243;-52
2020/12/30 00:10:25;;;;;;;2.37;2.17;;;;;18.80;98530.00;;;;2062875;28;20255;-53
2020/12/30 00:11:25;;;;;;;2.47;2.27;;;;;18.70;98530.00;;;;2062576;28;20214;-51
2020/12/30 00:12:28;;;;;;;1.87;1.77;;;;;18.80;98529.00;;;;2062826;28;20233;-51
2020/12/30 00:13:28;;;;;;;1.80;1.67;;;;;18.80;98528.00;;;;2062901;28;21006;-52
2020/12/30 00:14:28;;;;;;;2.03;1.83;;;;;18.70;98530.00;;;;2062561;28;20278;-51
2020/12/30 00:15:29;;;;;;;1.97;1.87;;;;;18.80;98526.00;;;;2062099;28;20756;-52
2020/12/30 00:16:29;;;;;;;1.67;1.57;;;;;18.80;98528.00;;;;2058071;28;20578;-52
2020/12/30 00:17:29;;;;;;;2.20;2.00;;;;;18.70;98536.00;;;;2059230;28;20261;-52
2020/12/30 00:18:30;;;;;;;2.50;2.30;;;;;18.80;98535.00;;;;2062906;28;20237;-51
2020/12/30 00:19:30;;;;;;;2.10;1.90;;;;;18.80;98529.00;;;;2060991;28;20217;-52
2020/12/30 00:20:30;;;;;;;2.50;2.00;;;;;18.70;98527.00;;;;2062214;28;20217;-53
2020/12/30 00:21:31;;;;;;;2.27;2.17;;;;;18.70;98529.00;;;;2062622;28;20217;-53
2020/12/30 00:22:31;;;;;;;1.90;1.80;;;;;18.70;98543.00;;;;2062854;28;20218;-54
2020/12/30 00:23:31;;;;;;;2.13;1.93;;;;;18.70;98529.00;;;;2062679;28;20260;-53
2020/12/30 00:24:32;;;;;;;1.70;1.60;;;;;18.70;98529.00;;;;2061603;28;20218;-53
2020/12/30 00:25:33;;;;;;;1.80;1.70;;;;;18.70;98531.00;;;;2062618;28;20253;-53
2020/12/30 00:26:33;;;;;;;1.90;1.77;;;;;18.70;98531.00;;;;2057537;28;20990;-53
2020/12/30 00:27:34;;;;;;;2.40;2.20;;;;;18.70;98536.00;;;;2059772;28;20617;-53
2020/12/30 00:28:34;;;;;;;1.93;1.83;;;;;18.70;98537.00;;;;2062956;28;20230;-51
2020/12/30 00:29:34;;;;;;;1.80;1.70;;;;;18.70;98531.00;;;;2062572;28;20213;-51
2020/12/30 00:30:35;;;;;;;1.73;1.60;;;;;18.80;98538.00;;;;2062870;28;20225;-52
2020/12/30 00:31:35;;;;;;;1.90;1.80;;;;;18.70;98534.00;;;;2061955;28;20348;-52
2020/12/30 00:32:35;;;;;;;2.27;2.10;;;;;18.70;98540.00;;;;2062282;28;20216;-53
2020/12/30 00:33:36;;;;;;;1.80;1.70;;;;;18.80;98539.00;;;;2062878;28;20236;-53
2020/12/30 00:34:40;;;;;;;1.90;1.80;;;;;18.80;98553.00;;;;2062271;28;20243;-52
2020/12/30 00:35:41;;;;;;;1.90;1.80;;;;;18.70;98540.00;;;;2062707;28;20465;-52
2020/12/30 00:36:41;;;;;;;1.80;1.70;;;;;18.80;98543.00;;;;2062167;28;20754;-53
2020/12/30 00:37:41;;;;;;;2.10;1.90;;;;;18.80;98543.00;;;;2062388;28;20578;-53
2020/12/30 00:38:43;;;;;;;1.97;1.87;;;;;18.70;98551.00;;;;2062519;28;20568;-53
2020/12/30 00:39:43;;;;;;;1.85;1.75;;;;;18.80;98549.00;;;;2062537;28;21012;-52
2020/12/30 00:40:43;;;;;;;2.27;2.07;;;;;18.80;98544.00;;;;2062812;28;20218;-53
2020/12/30 00:41:43;;;;;;;2.03;1.83;;;;;18.80;98549.00;;;;2062565;28;20260;-53
2020/12/30 00:42:44;;;;;;;2.00;1.90;;;;;18.70;98545.00;;;;2063000;28;20312;-52
2020/12/30 00:43:44;;;;;;;1.90;1.80;;;;;18.70;98555.00;;;;2062763;28;20229;-53
2020/12/30 00:44:45;;;;;;;2.20;2.00;;;;;18.70;98553.00;;;;2062173;28;20235;-52
2020/12/30 00:45:45;;;;;;;2.20;1.90;;;;;18.70;98552.00;;;;2062628;28;20264;-53
2020/12/30 00:46:50;;;;;;;2.33;1.90;;;;;18.70;98559.00;;;;2061871;28;20216;-53
2020/12/30 00:47:51;;;;;;;2.08;1.98;;;;;18.70;98551.00;;;;2062510;28;20221;-50
2020/12/30 00:48:51;;;;;;;2.17;1.80;;;;;18.70;98555.00;;;;2062757;28;20217;-51
2020/12/30 00:49:51;;;;;;;2.03;1.83;;;;;18.70;98565.00;;;;2062736;28;20229;-53
2020/12/30 00:50:52;;;;;;;2.00;1.90;;;;;18.70;98550.00;;;;2062890;28;20702;-52
2020/12/30 00:51:56;;;;;;;2.00;1.90;;;;;18.70;98557.00;;;;2062476;28;20775;-53
2020/12/30 00:52:56;;;;;;;2.03;1.83;;;;;18.70;98553.00;;;;2062813;28;20213;-53
2020/12/30 00:53:57;;;;;;;1.97;1.77;;;;;18.80;98559.00;;;;2062772;28;21052;-52
2020/12/30 00:54:57;;;;;;;2.30;2.10;;;;;18.70;98549.00;;;;2061466;28;20300;-52
2020/12/30 00:55:57;;;;;;;1.63;1.53;;;;;18.70;98565.00;;;;2062283;28;20210;-52
2020/12/30 00:56:58;;;;;;;2.37;2.17;;;;;18.70;98558.00;;;;2054274;28;20308;-52
2020/12/30 00:57:58;;;;;;;2.20;2.00;;;;;18.70;98561.00;;;;2061891;28;20280;-53
2020/12/30 00:58:58;;;;;;;2.03;1.93;;;;;18.70;98565.00;;;;2061524;28;20309;-53
2020/12/30 00:59:59;;;;;;;1.80;1.70;;;;;18.70;98558.00;;;;2062481;28;20225;-52
2020/12/30 01:00:59;;;;;;;1.70;1.60;;;;;18.70;98561.00;;;;2062758;28;20247;-50
2020/12/30 01:01:59;;;;;;;2.00;1.90;;;;;18.70;98571.00;;;;2062592;28;20756;-52
2020/12/30 01:03:00;;;;;;;2.10;1.97;;;;;18.70;98567.00;;;;2062812;28;20303;-53
2020/12/30 01:04:00;;;;;;;1.80;1.70;;;;;18.70;98563.00;;;;2061506;28;20259;-52
2020/12/30 01:05:00;;;;;;;2.00;1.90;;;;;18.70;98572.00;;;;2062047;28;20208;-53
2020/12/30 01:06:01;;;;;;;2.07;1.90;;;;;18.70;98568.00;;;;2062501;28;20232;-53
2020/12/30 01:07:02;;;;;;;2.20;2.00;;;;;18.70;98565.00;;;;2073766;28;20227;-52
2020/12/30 01:08:02;;;;;;;2.20;2.00;;;;;18.70;98572.00;;;;2077935;28;20458;-53
2020/12/30 01:09:06;;;;;;;1.70;1.60;;;;;18.70;98569.00;;;;2064779;28;20219;-53
2020/12/30 01:10:06;;;;;;;2.13;1.90;;;;;18.70;98575.00;;;;2075114;28;20226;-53
2020/12/30 01:11:07;;;;;;;2.17;1.97;;;;;18.70;98570.00;;;;2078305;28;20222;-52
2020/12/30 01:12:07;;;;;;;1.90;1.80;;;;;18.70;98576.00;;;;2063916;28;20279;-53
2020/12/30 01:13:07;;;;;;;2.20;2.03;;;;;18.70;98579.00;;;;2062945;28;22797;-53
2020/12/30 01:14:08;;;;;;;2.17;2.07;;;;;18.70;98572.00;;;;2062404;28;20224;-50
2020/12/30 01:15:08;;;;;;;1.70;1.60;;;;;18.70;98571.00;;;;2062148;28;20704;-52
2020/12/30 01:16:10;;;;;;;2.90;1.80;;;;;18.70;98575.00;;;;2062562;28;20709;-49
2020/12/30 01:17:10;;;;;;;1.65;1.55;;;;;18.70;98573.00;;;;2061791;28;20589;-53
2020/12/30 01:18:11;;;;;;;1.97;1.70;;;;;18.70;98567.00;;;;2061772;28;20253;-52
2020/12/30 01:19:11;;;;;;;2.50;1.80;;;;;18.70;98578.00;;;;2062468;28;20302;-53
2020/12/30 01:20:11;;;;;;;2.27;1.80;;;;;18.70;98576.00;;;;2062500;28;20236;-53
2020/12/30 01:21:12;;;;;;;1.87;1.77;;;;;18.70;98579.00;;;;2062478;28;20222;-53
2020/12/30 01:22:13;;;;;;;1.93;1.73;;;;;18.70;98576.00;;;;2062467;28;20260;-51
2020/12/30 01:23:13;;;;;;;2.00;1.80;;;;;18.70;98577.00;;;;2062613;28;20259;-53
2020/12/30 01:24:14;;;;;;;2.13;1.93;;;;;18.60;98581.00;;;;2061870;28;20701;-53
2020/12/30 01:25:14;;;;;;;1.77;1.67;;;;;18.60;98576.00;;;;2062052;28;20717;-51
2020/12/30 01:26:14;;;;;;;1.93;1.83;;;;;18.60;98583.00;;;;2062656;28;20656;-52
2020/12/30 01:27:15;;;;;;;1.70;1.60;;;;;18.60;98585.00;;;;2062677;28;20581;-54
2020/12/30 01:28:16;;;;;;;1.97;1.87;;;;;18.60;98582.00;;;;2062139;28;21048;-53
2020/12/30 01:29:16;;;;;;;2.00;1.90;;;;;18.70;98588.00;;;;2062024;28;20610;-50
2020/12/30 01:30:16;;;;;;;1.80;1.70;;;;;18.60;98584.00;;;;2061966;28;20222;-51
2020/12/30 01:31:17;;;;;;;2.00;1.80;;;;;18.60;98583.00;;;;2062758;28;20227;-53
2020/12/30 01:32:17;;;;;;;1.90;1.70;;;;;18.60;98586.00;;;;2062420;28;20233;-53
2020/12/30 01:33:18;;;;;;;1.50;1.40;;;;;18.60;98577.00;;;;2062576;28;20231;-52
2020/12/30 01:34:18;;;;;;;2.10;1.90;;;;;18.60;98581.00;;;;2062644;28;20591;-52
2020/12/30 01:35:18;;;;;;;1.90;1.80;;;;;18.70;98580.00;;;;2062009;28;20341;-51
2020/12/30 01:36:19;;;;;;;2.37;2.17;;;;;18.60;98583.00;;;;2062603;28;20309;-51
2020/12/30 01:37:19;;;;;;;1.80;1.70;;;;;18.60;98586.00;;;;2062144;28;20231;-52
2020/12/30 01:38:19;;;;;;;2.00;1.90;;;;;18.60;98588.00;;;;2062415;28;20694;-52
2020/12/30 01:39:20;;;;;;;2.03;1.93;;;;;18.60;98587.00;;;;2062305;28;20228;-52
2020/12/30 01:40:21;;;;;;;2.47;2.17;;;;;18.60;98585.00;;;;2062504;28;20225;-55
2020/12/30 01:41:21;;;;;;;2.03;1.90;;;;;18.60;98584.00;;;;2062568;28;20217;-56
2020/12/30 01:42:21;;;;;;;1.77;1.67;;;;;18.60;98585.00;;;;2062405;28;20224;-55
2020/12/30 01:43:22;;;;;;;1.50;1.40;;;;;18.60;98589.00;;;;2062545;28;20280;-55
2020/12/30 01:44:22;;;;;;;1.63;1.53;;;;;18.60;98588.00;;;;2062609;28;20237;-54
2020/12/30 01:45:22;;;;;;;1.97;1.87;;;;;18.70;98602.00;;;;2061807;28;20313;-52
2020/12/30 01:46:42;;;;;;;1.80;1.70;;;;;18.60;98589.00;;;;2062545;28;20704;-50
2020/12/30 01:47:44;;;;;;;1.75;1.65;;;;;18.70;98591.00;;;;2062514;28;20236;-50
2020/12/30 01:48:44;;;;;;;1.55;1.45;;;;;18.70;98583.00;;;;2062779;28;20352;-53
2020/12/30 01:49:44;;;;;;;2.23;2.03;;;;;18.60;98597.00;;;;2069423;28;20329;-53
2020/12/30 01:50:45;;;;;;;2.20;1.90;;;;;18.70;98587.00;;;;2071291;28;20221;-51
2020/12/30 01:51:45;;;;;;;1.90;1.80;;;;;18.60;98585.00;;;;2063534;28;20229;-52
2020/12/30 01:52:46;;;;;;;2.07;1.87;;;;;18.70;98592.00;;;;2063142;28;20217;-53
2020/12/30 01:53:46;;;;;;;1.67;1.57;;;;;18.70;98585.00;;;;2077685;28;20690;-53
2020/12/30 01:54:46;;;;;;;1.83;1.73;;;;;18.60;98592.00;;;;2078781;28;21136;-53
2020/12/30 01:55:47;;;;;;;1.83;1.73;;;;;18.70;98587.00;;;;2063473;28;21181;-53
2020/12/30 01:56:47;;;;;;;2.23;2.00;;;;;18.70;98593.00;;;;2054258;28;20704;-53
2020/12/30 01:57:47;;;;;;;2.53;2.33;;;;;18.70;98597.00;;;;2062905;28;20303;-51
2020/12/30 01:58:48;;;;;;;1.73;1.63;;;;;18.70;98591.00;;;;2063754;28;20457;-52
2020/12/30 01:59:48;;;;;;;3.13;2.27;;;;;18.60;98588.00;;;;2064053;28;20257;-52
2020/12/30 02:00:48;;;;;;;1.80;1.70;;;;;18.70;98590.00;;;;2063195;28;20233;-50
2020/12/30 02:02:00;;;;;;;1.90;1.80;;;;;18.70;98589.00;;;;2062639;28;20235;-52
2020/12/30 02:03:01;;;;;;;1.70;1.60;;;;;18.70;98595.00;;;;2054704;28;20224;-54
2020/12/30 02:04:02;;;;;;;1.90;1.80;;;;;18.60;98596.00;;;;2063779;28;20220;-53
2020/12/30 02:05:03;;;;;;;2.00;1.90;;;;;18.60;98592.00;;;;2063147;28;20213;-52
2020/12/30 02:06:03;;;;;;;2.63;1.97;;;;;18.60;98599.00;;;;2065734;28;20559;-53
2020/12/30 02:07:03;;;;;;;1.80;1.70;;;;;18.60;98598.00;;;;2062059;28;20205;-50
2020/12/30 02:08:07;;;;;;;2.00;1.90;;;;;18.60;98593.00;;;;2065319;28;20228;-53
2020/12/30 02:09:07;;;;;;;3.15;2.28;;;;;18.60;98596.00;;;;2063680;28;20223;-53
2020/12/30 02:10:08;;;;;;;1.70;1.60;;;;;18.60;98594.00;;;;2063799;28;20225;-50
2020/12/30 02:11:08;;;;;;;2.15;1.95;;;;;18.60;98599.00;;;;2067173;28;20216;-52
2020/12/30 02:12:09;;;;;;;2.00;1.90;;;;;18.60;98594.00;;;;2070432;28;20319;-52
2020/12/30 02:13:10;;;;;;;2.20;2.00;;;;;18.60;98596.00;;;;2065646;28;20260;-50
2020/12/30 02:14:13;;;;;;;2.13;1.93;;;;;18.60;98606.00;;;;2075346;28;20301;-51
2020/12/30 02:15:27;;;;;;;1.85;1.75;;;;;18.60;98595.00;;;;2078506;28;20215;-50
2020/12/30 02:16:27;;;;;;;1.65;1.55;;;;;18.60;98600.00;;;;2071403;28;20216;-53
2020/12/30 02:17:27;;;;;;;2.00;1.77;;;;;18.60;98597.00;;;;2071645;28;20304;-53
2020/12/30 02:18:28;;;;;;;2.27;2.07;;;;;18.60;98593.00;;;;2071610;28;20230;-51
2020/12/30 02:19:28;;;;;;;1.83;1.73;;;;;18.60;98603.00;;;;2070789;28;20217;-50
2020/12/30 02:20:30;;;;;;;2.30;2.10;;;;;18.60;98605.00;;;;2071672;28;20216;-50
2020/12/30 02:21:31;;;;;;;2.67;1.98;;;;;18.60;98606.00;;;;2071580;28;20212;-52
2020/12/30 02:22:31;;;;;;;2.93;1.93;;;;;18.60;98600.00;;;;2071407;28;20218;-53
2020/12/30 02:23:32;;;;;;;1.93;1.80;;;;;18.60;98611.00;;;;2071862;28;20295;-53
2020/12/30 02:24:33;;;;;;;2.00;1.90;;;;;18.60;98609.00;;;;2062348;28;20217;-51
2020/12/30 02:25:33;;;;;;;2.20;1.93;;;;;18.60;98614.00;;;;2063138;28;20472;-53
2020/12/30 02:26:34;;;;;;;1.77;1.67;;;;;18.60;98611.00;;;;2071773;28;21044;-53
2020/12/30 02:27:34;;;;;;;1.97;1.87;;;;;18.60;98608.00;;;;2071592;28;20291;-52
2020/12/30 02:28:34;;;;;;;2.57;2.37;;;;;18.60;98607.00;;;;2071671;28;20209;-51
2020/12/30 02:29:35;;;;;;;2.00;1.90;;;;;18.60;98615.00;;;;2071776;28;20216;-53
2020/12/30 02:30:35;;;;;;;1.87;1.63;;;;;18.60;98611.00;;;;2071491;28;20235;-53
2020/12/30 02:31:35;;;;;;;1.80;1.70;;;;;18.60;98612.00;;;;2071732;28;20286;-53
2020/12/30 02:32:36;;;;;;;2.20;2.10;;;;;18.60;98613.00;;;;2071583;28;20199;-53
2020/12/30 02:33:36;;;;;;;2.33;2.13;;;;;18.60;98610.00;;;;2071703;28;20206;-53
2020/12/30 02:34:36;;;;;;;1.97;1.87;;;;;18.60;98610.00;;;;2069994;28;20208;-51
2020/12/30 02:35:37;;;;;;;2.67;2.00;;;;;18.60;98612.00;;;;2071847;28;20223;-53
2020/12/30 02:36:37;;;;;;;3.13;2.10;;;;;18.60;98609.00;;;;2071742;28;20245;-53
2020/12/30 02:37:37;;;;;;;2.17;2.07;;;;;18.60;98615.00;;;;2071536;28;20200;-52
2020/12/30 02:38:38;;;;;;;2.53;2.17;;;;;18.60;98615.00;;;;2071740;28;20258;-52
2020/12/30 02:39:38;;;;;;;2.10;2.00;;;;;18.60;98611.00;;;;2071793;28;20247;-54
2020/12/30 02:40:38;;;;;;;2.00;1.80;;;;;18.60;98616.00;;;;2071490;28;20220;-51
2020/12/30 02:41:39;;;;;;;2.03;1.73;;;;;18.60;98618.00;;;;2071501;28;20869;-51
2020/12/30 02:42:39;;;;;;;1.80;1.70;;;;;18.60;98619.00;;;;2071701;28;20221;-53
2020/12/30 02:43:39;;;;;;;1.90;1.80;;;;;18.60;98622.00;;;;2071779;28;20220;-53
2020/12/30 02:44:40;;;;;;;2.00;1.80;;;;;18.60;98620.00;;;;2071033;28;20274;-53
2020/12/30 02:45:40;;;;;;;1.83;1.73;;;;;18.50;98621.00;;;;2071670;28;20313;-54
2020/12/30 02:46:41;;;;;;;1.87;1.77;;;;;18.50;98620.00;;;;2071439;28;20213;-54
2020/12/30 02:47:41;;;;;;;2.03;1.93;;;;;18.60;98623.00;;;;2071584;28;20233;-51
2020/12/30 02:48:41;;;;;;;2.03;1.93;;;;;18.60;98619.00;;;;2071594;28;20741;-53
2020/12/30 02:49:42;;;;;;;1.97;1.87;;;;;18.50;98624.00;;;;2070738;28;20674;-53
2020/12/30 02:50:42;;;;;;;1.73;1.63;;;;;18.50;98617.00;;;;2070622;28;20219;-54
2020/12/30 02:51:46;;;;;;;1.70;1.60;;;;;18.50;98626.00;;;;2071325;28;20211;-54
2020/12/30 02:52:46;;;;;;;2.00;1.90;;;;;18.60;98627.00;;;;2071542;28;20219;-53
2020/12/30 02:53:46;;;;;;;1.97;1.87;;;;;18.60;98620.00;;;;2071666;28;20979;-53
2020/12/30 02:54:47;;;;;;;2.10;1.90;;;;;18.60;98625.00;;;;2070820;28;20221;-53
2020/12/30 02:55:47;;;;;;;2.00;1.90;;;;;18.60;98625.00;;;;2066181;28;20206;-54
2020/12/30 02:56:47;;;;;;;1.83;1.73;;;;;18.60;98633.00;;;;2070372;28;20304;-53
2020/12/30 02:57:48;;;;;;;2.10;1.90;;;;;18.60;98634.00;;;;2071151;28;20224;-54
2020/12/30 02:58:48;;;;;;;2.07;1.90;;;;;18.60;98636.00;;;;2071154;28;20327;-50
2020/12/30 02:59:55;;;;;;;2.10;1.90;;;;;18.60;98636.00;;;;2071411;28;20225;-50
2020/12/30 03:00:56;;;;;;;2.13;2.00;;;;;18.50;98641.00;;;;2071380;28;20220;-53
2020/12/30 03:01:56;;;;;;;1.90;1.80;;;;;18.50;98633.00;;;;2063289;28;20221;-52
2020/12/30 03:02:56;;;;;;;1.87;1.77;;;;;18.60;98638.00;;;;2071338;28;20208;-53
2020/12/30 03:03:57;;;;;;;2.07;1.90;;;;;18.60;98640.00;;;;2070478;28;20208;-54
2020/12/30 03:04:57;;;;;;;1.83;1.63;;;;;18.50;98638.00;;;;2070950;28;20220;-54
2020/12/30 03:05:57;;;;;;;2.07;1.93;;;;;18.60;98638.00;;;;2070770;28;20234;-51
2020/12/30 03:06:58;;;;;;;2.20;2.00;;;;;18.60;98641.00;;;;2070172;28;20285;-49
2020/12/30 03:07:58;;;;;;;1.83;1.73;;;;;18.60;98645.00;;;;2071448;28;20225;-50
2020/12/30 03:08:58;;;;;;;1.60;1.50;;;;;18.50;98634.00;;;;2070712;28;20235;-49
2020/12/30 03:09:59;;;;;;;2.10;2.00;;;;;18.50;98648.00;;;;2070720;28;20299;-50
2020/12/30 03:10:59;;;;;;;2.10;1.90;;;;;18.60;98641.00;;;;2071122;28;20221;-51
2020/12/30 03:12:00;;;;;;;2.20;2.00;;;;;18.60;98639.00;;;;2068118;28;20214;-49
2020/12/30 03:13:00;;;;;;;2.03;1.93;;;;;18.60;98642.00;;;;2078228;28;20691;-49
2020/12/30 03:14:00;;;;;;;1.80;1.70;;;;;18.50;98645.00;;;;2061081;28;20609;-54
2020/12/30 03:15:01;;;;;;;2.60;2.03;;;;;18.50;98644.00;;;;2070180;28;20219;-53
2020/12/30 03:16:02;;;;;;;1.80;1.70;;;;;18.60;98651.00;;;;2071438;28;20219;-52
2020/12/30 03:17:02;;;;;;;1.87;1.77;;;;;18.60;98651.00;;;;2070918;28;20322;-48
2020/12/30 03:18:02;;;;;;;1.90;1.80;;;;;18.60;98653.00;;;;2071371;28;20215;-51
2020/12/30 03:19:03;;;;;;;1.90;1.70;;;;;18.60;98647.00;;;;2071291;28;20214;-51
2020/12/30 03:20:03;;;;;;;1.90;1.80;;;;;18.60;98641.00;;;;2071493;28;20209;-51
2020/12/30 03:21:03;;;;;;;1.73;1.63;;;;;18.50;98645.00;;;;2071234;28;20213;-51
2020/12/30 03:22:04;;;;;;;1.80;1.70;;;;;18.50;98646.00;;;;2071148;28;20220;-51
2020/12/30 03:23:04;;;;;;;1.90;1.80;;;;;18.50;98640.00;;;;2071098;28;20235;-48
2020/12/30 03:24:05;;;;;;;2.00;1.90;;;;;18.50;98650.00;;;;2071382;28;20215;-50
2020/12/30 03:25:05;;;;;;;1.80;1.70;;;;;18.60;98650.00;;;;2070479;28;20258;-51
2020/12/30 03:26:05;;;;;;;2.30;2.10;;;;;18.50;98646.00;;;;2071243;28;20679;-51
2020/12/30 03:27:06;;;;;;;2.53;2.10;;;;;18.50;98649.00;;;;2071094;28;20277;-51
2020/12/30 03:28:06;;;;;;;1.67;1.57;;;;;18.50;98653.00;;;;2071117;28;20205;-51
2020/12/30 03:29:06;;;;;;;2.03;1.70;;;;;18.50;98654.00;;;;2071344;28;20207;-50
2020/12/30 03:30:07;;;;;;;2.10;2.00;;;;;18.50;98655.00;;;;2071548;28;20319;-49
2020/12/30 03:31:07;;;;;;;2.63;2.00;;;;;18.50;98650.00;;;;2071010;28;20209;-52
2020/12/30 03:32:07;;;;;;;2.20;2.00;;;;;18.50;98654.00;;;;2070917;28;20247;-52
2020/12/30 03:33:08;;;;;;;2.40;2.07;;;;;18.50;98642.00;;;;2071238;28;20216;-50
2020/12/30 03:34:08;;;;;;;2.07;1.87;;;;;18.50;98645.00;;;;2071348;28;20648;-50
2020/12/30 03:35:08;;;;;;;2.60;2.40;;;;;18.50;98644.00;;;;2069879;28;20615;-51
2020/12/30 03:36:09;;;;;;;2.67;2.33;;;;;18.60;98656.00;;;;2070526;28;20213;-48
2020/12/30 03:37:09;;;;;;;1.97;1.80;;;;;18.50;98643.00;;;;2071024;28;20219;-50
2020/12/30 03:38:09;;;;;;;2.23;2.07;;;;;18.50;98646.00;;;;2071062;28;20224;-51
2020/12/30 03:39:10;;;;;;;2.03;1.83;;;;;18.50;98637.00;;;;2070880;28;20220;-51
2020/12/30 03:40:10;;;;;;;1.90;1.70;;;;;18.50;98650.00;;;;2071060;28;20211;-51
2020/12/30 03:41:11;;;;;;;1.90;1.80;;;;;18.50;98648.00;;;;2070990;28;20212;-48
2020/12/30 03:42:11;;;;;;;1.97;1.87;;;;;18.50;98649.00;;;;2070584;28;20215;-49
2020/12/30 03:43:11;;;;;;;2.00;1.90;;;;;18.50;98648.00;;;;2071028;28;20219;-51
2020/12/30 03:44:12;;;;;;;2.00;1.90;;;;;18.50;98646.00;;;;2071240;28;20217;-51
2020/12/30 03:45:12;;;;;;;2.20;2.10;;;;;18.50;98652.00;;;;2070550;28;20217;-51
2020/12/30 03:46:13;;;;;;;1.90;1.80;;;;;18.50;98643.00;;;;2070716;28;20358;-51
2020/12/30 03:47:13;;;;;;;2.90;2.00;;;;;18.50;98651.00;;;;2070957;28;20580;-49
2020/12/30 03:48:13;;;;;;;2.30;2.20;;;;;18.50;98647.00;;;;2071047;28;20595;-51
2020/12/30 03:49:14;;;;;;;2.33;2.13;;;;;18.50;98646.00;;;;2071137;28;20576;-51
2020/12/30 03:50:14;;;;;;;2.13;2.00;;;;;18.50;98654.00;;;;2071296;28;20264;-50
2020/12/30 03:51:14;;;;;;;1.70;1.60;;;;;18.50;98649.00;;;;2070838;28;20299;-51
2020/12/30 03:52:16;;;;;;;2.30;2.10;;;;;18.50;98653.00;;;;2070178;28;20224;-51
2020/12/30 03:53:16;;;;;;;2.30;2.10;;;;;18.50;98650.00;;;;2070874;28;20314;-49
2020/12/30 03:54:17;;;;;;;2.00;1.90;;;;;18.50;98649.00;;;;2070462;28;20193;-50
2020/12/30 03:55:17;;;;;;;2.27;1.90;;;;;18.50;98650.00;;;;2070411;28;20194;-47
2020/12/30 03:56:17;;;;;;;2.07;1.87;;;;;18.50;98649.00;;;;2071102;28;20210;-50
2020/12/30 03:57:18;;;;;;;1.80;1.70;;;;;18.50;98651.00;;;;2067874;28;20198;-51
2020/12/30 03:58:21;;;;;;;2.10;1.70;;;;;18.50;98647.00;;;;2065605;28;20701;-51
2020/12/30 03:59:22;;;;;;;1.92;1.80;;;;;18.50;98654.00;;;;2071163;28;20292;-49
2020/12/30 04:00:22;;;;;;;1.90;1.80;;;;;18.50;98654.00;;;;2070963;28;20217;-51
2020/12/30 04:01:22;;;;;;;1.77;1.67;;;;;18.50;98646.00;;;;2070854;28;20585;-50
2020/12/30 04:02:22;;;;;;;1.90;1.80;;;;;18.50;98653.00;;;;2071008;28;20221;-51
2020/12/30 04:03:23;;;;;;;2.33;1.93;;;;;18.50;98650.00;;;;2070968;28;20370;-51
2020/12/30 04:04:23;;;;;;;2.60;1.83;;;;;18.50;98651.00;;;;2071085;28;20263;-52
2020/12/30 04:05:23;;;;;;;1.63;1.53;;;;;18.40;98659.00;;;;2070384;28;20213;-48
2020/12/30 04:06:24;;;;;;;1.83;1.73;;;;;18.50;98653.00;;;;2070981;28;20228;-51
2020/12/30 04:07:24;;;;;;;1.70;1.60;;;;;18.50;98648.00;;;;2070766;28;20724;-52
2020/12/30 04:08:24;;;;;;;2.00;1.83;;;;;18.50;98649.00;;;;2070789;28;20892;-52
2020/12/30 04:09:25;;;;;;;1.90;1.80;;;;;18.40;98654.00;;;;2071019;28;20645;-52
2020/12/30 04:10:25;;;;;;;1.70;1.60;;;;;18.50;98654.00;;;;2070810;28;20377;-51
2020/12/30 04:11:26;;;;;;;2.40;2.20;;;;;18.50;98657.00;;;;2070307;28;20230;-52
2020/12/30 04:12:26;;;;;;;2.40;2.20;;;;;18.50;98663.00;;;;2070888;28;20228;-51
2020/12/30 04:13:26;;;;;;;2.13;1.57;;;;;18.50;98658.00;;;;2070971;28;20216;-51
2020/12/30 04:14:27;;;;;;;2.10;1.90;;;;;18.50;98655.00;;;;2071136;28;20216;-52
2020/12/30 04:15:27;;;;;;;2.13;1.97;;;;;18.50;98651.00;;;;2070538;28;20227;-50
2020/12/30 04:16:27;;;;;;;2.33;1.97;;;;;18.50;98661.00;;;;2071036;28;20310;-50
2020/12/30 04:17:28;;;;;;;2.40;2.20;;;;;18.50;98656.00;;;;2070653;28;20232;-52
2020/12/30 04:18:28;;;;;;;1.63;1.53;;;;;18.50;98661.00;;;;2071081;28;20601;-49
2020/12/30 04:19:29;;;;;;;1.93;1.83;;;;;18.50;98656.00;;;;2070983;28;20299;-51
2020/12/30 04:20:29;;;;;;;2.10;1.80;;;;;18.50;98652.00;;;;2070916;28;20223;-49
2020/12/30 04:21:29;;;;;;;1.90;1.80;;;;;18.50;98657.00;;;;2070580;28;20225;-52
2020/12/30 04:22:30;;;;;;;2.63;2.20;;;;;18.50;98659.00;;;;2070734;28;20347;-50
2020/12/30 04:23:30;;;;;;;2.00;1.90;;;;;18.50;98653.00;;;;2070819;28;20688;-51
2020/12/30 04:24:31;;;;;;;2.13;1.90;;;;;18.50;98662.00;;;;2070594;28;20743;-49
2020/12/30 04:25:31;;;;;;;1.87;1.77;;;;;18.50;98659.00;;;;2070641;28;20232;-52
2020/12/30 04:26:31;;;;;;;2.00;1.80;;;;;18.50;98657.00;;;;2070778;28;20220;-52
2020/12/30 04:27:32;;;;;;;1.87;1.73;;;;;18.50;98659.00;;;;2063632;28;20228;-53
2020/12/30 04:28:32;;;;;;;1.70;1.60;;;;;18.50;98661.00;;;;2077993;28;20226;-52
2020/12/30 04:29:32;;;;;;;2.17;1.97;;;;;18.50;98660.00;;;;2074861;28;21005;-50
2020/12/30 04:30:33;;;;;;;1.83;1.73;;;;;18.50;98667.00;;;;2069402;28;20224;-51
2020/12/30 04:31:35;;;;;;;2.17;1.80;;;;;18.50;98662.00;;;;2070102;28;20262;-50
2020/12/30 04:32:36;;;;;;;2.20;2.00;;;;;18.50;98664.00;;;;2070058;28;20220;-52
2020/12/30 04:33:37;;;;;;;2.40;2.20;;;;;18.50;98667.00;;;;2070160;28;20704;-53
2020/12/30 04:34:37;;;;;;;1.80;1.70;;;;;18.50;98664.00;;;;2069775;28;20340;-52
2020/12/30 04:35:37;;;;;;;2.00;1.90;;;;;18.50;98664.00;;;;2070262;28;20446;-52
2020/12/30 04:36:38;;;;;;;2.03;1.93;;;;;18.50;98658.00;;;;2070123;28;20216;-52
2020/12/30 04:37:38;;;;;;;2.13;1.93;;;;;18.50;98654.00;;;;2069936;28;20941;-52
2020/12/30 04:38:38;;;;;;;1.93;1.83;;;;;18.50;98669.00;;;;2070313;28;20995;-52
2020/12/30 04:39:39;;;;;;;2.17;1.97;;;;;18.40;98666.00;;;;2070236;28;20245;-51
2020/12/30 04:40:40;;;;;;;2.13;2.00;;;;;18.40;98656.00;;;;2070063;28;20689;-56
2020/12/30 04:41:41;;;;;;;2.03;1.92;;;;;18.40;98654.00;;;;2061170;28;20241;-52
2020/12/30 04:42:41;;;;;;;1.90;1.80;;;;;18.40;98658.00;;;;2045511;28;20208;-50
2020/12/30 04:43:43;;;;;;;1.90;1.80;;;;;18.40;98655.00;;;;2053375;28;20210;-51
2020/12/30 04:44:45;;;;;;;2.13;1.92;;;;;18.50;98665.00;;;;2069254;28;20219;-52
2020/12/30 04:45:45;;;;;;;1.70;1.60;;;;;18.40;98652.00;;;;2077420;28;20239;-51
2020/12/30 04:46:46;;;;;;;2.57;2.07;;;;;18.40;98660.00;;;;2069456;28;20264;-52
2020/12/30 04:47:46;;;;;;;2.03;1.90;;;;;18.50;98661.00;;;;2061033;28;20226;-52
2020/12/30 04:48:46;;;;;;;1.77;1.67;;;;;18.40;98659.00;;;;2061765;28;20255;-52
2020/12/30 04:49:47;;;;;;;1.77;1.67;;;;;18.40;98665.00;;;;2053494;28;20224;-52
2020/12/30 04:50:47;;;;;;;2.30;2.10;;;;;18.40;98664.00;;;;2060886;28;20684;-52
2020/12/30 04:51:47;;;;;;;2.10;2.00;;;;;18.40;98660.00;;;;2057925;28;20621;-50
2020/12/30 04:52:48;;;;;;;1.90;1.80;;;;;18.40;98664.00;;;;2063129;28;20452;-51
2020/12/30 04:53:48;;;;;;;2.30;2.10;;;;;18.40;98668.00;;;;2066949;28;20306;-52
2020/12/30 04:54:52;;;;;;;2.37;2.03;;;;;18.40;98659.00;;;;2069578;28;20224;-52
2020/12/30 04:55:52;;;;;;;2.40;2.20;;;;;18.40;98668.00;;;;2068955;28;20225;-52
2020/12/30 04:56:56;;;;;;;2.30;1.80;;;;;18.40;98659.00;;;;2069703;28;20715;-51
2020/12/30 04:57:58;;;;;;;1.88;1.77;;;;;18.50;98660.00;;;;2062741;28;20239;-51
2020/12/30 04:58:58;;;;;;;2.03;1.90;;;;;18.50;98666.00;;;;2070828;28;20224;-52
2020/12/30 04:59:59;;;;;;;2.10;2.00;;;;;18.40;98658.00;;;;2061906;28;20232;-50
2020/12/30 05:00:59;;;;;;;1.80;1.70;;;;;18.40;98667.00;;;;2061138;28;20225;-52
2020/12/30 05:02:02;;;;;;;2.30;2.10;;;;;18.40;98662.00;;;;2070519;28;20224;-52
2020/12/30 05:03:08;;;;;;;2.10;2.00;;;;;18.40;98665.00;;;;2070570;28;20551;-53
2020/12/30 05:04:09;;;;;;;1.80;1.70;;;;;18.40;98672.00;;;;2070732;28;20228;-52